Time;durP1;ratioP1;P1;durP2;ratioP2;P2;SDS_P1;SDS_P2;PMS_P1;PMS_P2;Temp;Humidity;BMP_temperature;BMP_pressure;BME280_temperature;BME280_humidity;BME280_pressure;Samples;Min_cycle;Max_cycle;Signal;HPM_P1;HPM_P2
2022/05/19 00:00:35;;;;;;;;;6.75;6.75;;;;;24.28;50.35;99589.16;5094282;27;45459;-58
2022/05/19 00:03:09;;;;;;;;;8.00;8.00;;;;;24.26;50.59;99590.28;5091334;27;45472;-58
2022/05/19 00:05:35;;;;;;;;;9.00;7.00;;;;;24.22;50.53;99596.91;5093898;27;45414;-58
2022/05/19 00:08:00;;;;;;;;;8.25;8.25;;;;;24.19;50.51;99597.16;5091416;27;46662;-58
2022/05/19 00:10:26;;;;;;;;;9.00;7.50;;;;;24.16;50.63;99602.81;5092363;27;45365;-58
2022/05/19 00:12:51;;;;;;;;;7.50;7.25;;;;;24.14;50.40;99600.25;5093675;27;45779;-58
2022/05/19 00:15:17;;;;;;;;;9.00;9.00;;;;;24.12;50.58;99601.41;5075178;27;45398;-58
2022/05/19 00:17:42;;;;;;;;;9.75;7.25;;;;;24.06;50.24;99594.72;5088112;27;45403;-63
2022/05/19 00:20:08;;;;;;;;;9.00;8.00;;;;;24.00;50.71;99598.78;5074970;28;45325;-63
2022/05/19 00:22:43;;;;;;;;;6.25;6.25;;;;;23.95;50.86;99598.38;5075684;28;45375;-64
2022/05/19 00:25:08;;;;;;;;;8.00;7.00;;;;;23.88;51.16;99599.88;5089270;27;45357;-64
2022/05/19 00:27:33;;;;;;;;;7.75;7.25;;;;;23.83;50.88;99598.56;5075609;28;46044;-63
2022/05/19 00:30:08;;;;;;;;;16.50;8.75;;;;;23.76;50.92;99602.78;5079031;27;45341;-64
2022/05/19 00:32:34;;;;;;;;;7.00;7.00;;;;;23.69;51.36;99601.59;5087181;27;45359;-64
2022/05/19 00:34:59;;;;;;;;;9.75;8.50;;;;;23.63;51.46;99593.06;5085129;27;45372;-64
2022/05/19 00:37:24;;;;;;;;;6.75;6.75;;;;;23.60;51.60;99597.88;5088961;27;45420;-64
2022/05/19 00:39:50;;;;;;;;;8.00;8.00;;;;;23.56;51.53;99601.81;5080324;27;45526;-63
2022/05/19 00:45:02;;;;;;;;;8.75;7.50;;;;;23.47;51.98;99603.41;5079148;27;45444;-64
2022/05/19 00:47:35;;;;;;;;;8.75;8.25;;;;;23.43;52.45;99606.53;5084391;27;46047;-64
2022/05/19 00:50:04;;;;;;;;;7.80;7.80;;;;;23.41;52.72;99608.47;5074422;28;45444;-64
2022/05/19 00:52:34;;;;;;;;;8.25;8.25;;;;;23.39;52.23;99610.44;5075321;28;45434;-65
2022/05/19 00:55:07;;;;;;;;;9.00;7.75;;;;;23.37;53.04;99605.19;5056489;28;45551;-64
2022/05/19 00:57:38;;;;;;;;;8.00;8.00;;;;;23.33;53.64;99607.28;5074753;27;46309;-63
2022/05/19 01:00:08;;;;;;;;;9.60;8.00;;;;;23.28;53.56;99611.38;5083179;27;45486;-64
2022/05/19 01:02:39;;;;;;;;;10.75;10.00;;;;;23.23;53.91;99611.75;5061671;28;45402;-63
2022/05/19 01:05:14;;;;;;;;;8.00;6.25;;;;;23.18;54.73;99605.91;5074807;28;45395;-63
2022/05/19 01:08:20;;;;;;;;;9.25;9.00;;;;;23.13;54.25;99604.56;5078310;27;45814;-64
2022/05/19 01:10:46;;;;;;;;;8.20;7.20;;;;;23.09;54.46;99604.00;5089994;27;45470;-63
2022/05/19 01:13:13;;;;;;;;;7.00;6.25;;;;;23.07;54.21;99605.09;5099241;27;45432;-63
2022/05/19 01:15:45;;;;;;;;;11.25;10.25;;;;;23.03;54.28;99611.72;5098982;27;45370;-63
2022/05/19 01:18:14;;;;;;;;;7.25;7.25;;;;;22.98;54.57;99609.41;5080432;27;46618;-63
2022/05/19 01:20:40;;;;;;;;;9.80;9.80;;;;;22.96;55.10;99609.53;5099016;27;45294;-63
2022/05/19 01:23:12;;;;;;;;;8.00;8.00;;;;;22.92;54.84;99618.00;5099402;27;45386;-64
2022/05/19 01:25:49;;;;;;;;;8.50;7.50;;;;;22.85;55.03;99617.63;5098610;27;45404;-63
2022/05/19 01:28:16;;;;;;;;;9.00;6.50;;;;;22.83;55.05;99608.00;5098852;27;45453;-63
2022/05/19 01:30:42;;;;;;;;;7.40;6.40;;;;;22.82;54.90;99617.88;5098525;27;45370;-63
2022/05/19 01:33:08;;;;;;;;;9.50;9.50;;;;;22.80;54.88;99609.09;5098182;27;45362;-63
2022/05/19 01:35:33;;;;;;;;;8.25;7.50;;;;;22.79;54.90;99612.75;5098291;27;45509;-63
2022/05/19 01:38:21;;;;;;;;;7.25;7.25;;;;;22.75;55.29;99610.44;5098634;27;45513;-64
2022/05/19 01:40:58;;;;;;;;;9.20;9.20;;;;;22.73;55.31;99607.03;5079880;27;45440;-63
2022/05/19 01:43:56;;;;;;;;;7.60;7.60;;;;;22.69;55.69;99609.09;5078292;28;45165;-63
2022/05/19 01:46:27;;;;;;;;;11.00;10.00;;;;;22.65;54.97;99604.94;5091370;27;45495;-63
2022/05/19 01:49:15;;;;;;;;;8.25;6.50;;;;;22.62;55.88;99603.34;5077440;28;46159;-64
2022/05/19 01:51:57;;;;;;;;;7.20;7.20;;;;;22.60;55.67;99609.88;5077746;28;45360;-63
2022/05/19 01:54:35;;;;;;;;;8.00;8.00;;;;;22.59;55.54;99622.44;5079162;27;45384;-64
2022/05/19 01:57:19;;;;;;;;;7.25;7.25;;;;;22.59;55.60;99621.59;5088472;27;45278;-64
2022/05/19 02:00:23;;;;;;;;;10.00;8.00;;;;;22.57;55.30;99627.09;5076262;28;46422;-64
2022/05/19 02:03:15;;;;;;;;;7.20;6.80;;;;;22.56;55.55;99627.22;5068704;27;45401;-64
2022/05/19 02:05:47;;;;;;;;;10.00;7.00;;;;;22.54;55.66;99632.72;5098302;27;45450;-64
2022/05/19 02:08:23;;;;;;;;;9.00;8.00;;;;;22.55;56.06;99639.81;5098242;27;45417;-64
2022/05/19 02:11:02;;;;;;;;;8.00;7.25;;;;;22.55;56.23;99638.94;5095468;27;46176;-64
2022/05/19 02:13:30;;;;;;;;;8.00;8.00;;;;;22.54;56.18;99638.09;5077883;28;45396;-64
2022/05/19 02:16:00;;;;;;;;;7.75;7.75;;;;;22.53;56.27;99640.91;5077727;28;45391;-64
2022/05/19 02:18:27;;;;;;;;;10.00;9.00;;;;;22.50;56.20;99650.06;5076851;28;45446;-64
2022/05/19 02:20:57;;;;;;;;;8.25;8.25;;;;;22.48;56.60;99643.09;5076203;28;46449;-64
2022/05/19 02:23:24;;;;;;;;;9.20;8.60;;;;;22.45;56.62;99648.75;5077357;28;45438;-63
2022/05/19 02:25:52;;;;;;;;;15.25;14.50;;;;;22.44;56.85;99650.56;5058730;28;45437;-63
2022/05/19 02:28:33;;;;;;;;;17.25;16.00;;;;;22.43;57.50;99651.53;5057144;28;45580;-64
2022/05/19 02:31:00;;;;;;;;;22.75;20.25;;;;;22.39;57.52;99660.81;5076992;27;45593;-64
2022/05/19 02:33:25;;;;;;;;;28.67;26.67;;;;;22.35;57.91;99659.34;5076629;28;45383;-64
2022/05/19 02:35:51;;;;;;;;;20.00;16.00;;;;;22.32;58.47;99662.28;5077517;28;45492;-63
2022/05/19 02:38:19;;;;;;;;;24.00;21.75;;;;;22.28;58.43;99656.31;5059000;28;45543;-64
2022/05/19 02:40:45;;;;;;;;;16.50;16.00;;;;;22.26;58.70;99654.72;5077104;28;45628;-64
2022/05/19 02:43:19;;;;;;;;;19.25;14.50;;;;;22.24;58.12;99664.75;5094742;27;46031;-64
2022/05/19 02:45:54;;;;;;;;;10.25;10.00;;;;;22.20;58.58;99665.94;5087425;27;45364;-63
2022/05/19 02:48:20;;;;;;;;;10.25;10.25;;;;;22.17;58.63;99668.88;5078596;27;45334;-64
2022/05/19 02:50:48;;;;;;;;;13.00;11.00;;;;;22.14;59.10;99667.28;5076867;28;47224;-64
2022/05/19 02:53:22;;;;;;;;;13.40;12.00;;;;;22.07;58.52;99666.06;5076682;28;45547;-64
2022/05/19 02:55:47;;;;;;;;;8.50;8.25;;;;;22.05;59.37;99668.03;5076954;28;45494;-64
2022/05/19 02:58:14;;;;;;;;;12.75;12.75;;;;;22.02;59.32;99676.31;5077117;28;45424;-63
2022/05/19 03:00:42;;;;;;;;;10.00;10.00;;;;;21.97;58.81;99670.41;5076813;28;45395;-63
2022/05/19 03:03:07;;;;;;;;;10.25;9.25;;;;;21.95;59.14;99670.53;5076569;28;45313;-63
2022/05/19 03:05:34;;;;;;;;;8.00;8.00;;;;;21.92;58.79;99676.16;5077122;28;45356;-63
2022/05/19 03:07:59;;;;;;;;;10.50;8.50;;;;;21.90;58.78;99675.41;5076383;28;45392;-63
2022/05/19 03:10:26;;;;;;;;;10.00;10.00;;;;;21.87;58.74;99675.66;5082814;27;45345;-63
2022/05/19 03:12:55;;;;;;;;;11.60;10.60;;;;;21.85;58.46;99674.91;5076738;28;45345;-63
2022/05/19 03:15:20;;;;;;;;;10.00;9.00;;;;;21.85;59.24;99682.09;5076602;28;45479;-63
2022/05/19 03:17:46;;;;;;;;;8.50;8.50;;;;;21.82;59.25;99679.66;5083196;27;45526;-64
2022/05/19 03:20:12;;;;;;;;;10.25;10.00;;;;;21.81;58.94;99683.31;5083327;27;45844;-64
2022/05/19 03:22:38;;;;;;;;;10.00;9.40;;;;;21.79;59.31;99679.88;5076544;28;45340;-63
2022/05/19 03:25:05;;;;;;;;;8.75;8.75;;;;;21.77;59.93;99682.72;5076518;28;45473;-64
2022/05/19 03:27:31;;;;;;;;;11.75;10.00;;;;;21.75;59.51;99686.50;5083309;27;45357;-64
2022/05/19 03:29:56;;;;;;;;;9.50;9.50;;;;;21.72;59.58;99689.41;5096725;27;45442;-64
2022/05/19 03:32:31;;;;;;;;;12.25;9.75;;;;;21.68;59.89;99694.16;5096256;27;45309;-64
2022/05/19 03:34:56;;;;;;;;;10.00;10.00;;;;;21.64;59.94;99695.34;5096233;27;45343;-63
2022/05/19 03:37:22;;;;;;;;;12.25;11.00;;;;;21.62;59.86;99689.22;5096684;27;45131;-64
2022/05/19 03:39:47;;;;;;;;;11.75;10.00;;;;;21.62;60.41;99699.16;5096447;27;46366;-63
2022/05/19 03:42:13;;;;;;;;;11.00;9.75;;;;;21.58;60.37;99696.69;5085069;27;45564;-63
2022/05/19 03:44:38;;;;;;;;;10.25;9.00;;;;;21.57;60.19;99696.81;5076743;27;45449;-63
2022/05/19 03:47:05;;;;;;;;;10.75;9.75;;;;;21.54;59.94;99702.41;5096432;27;45496;-63
2022/05/19 03:49:31;;;;;;;;;11.00;9.75;;;;;21.51;60.21;99703.47;5095930;27;46674;-63
2022/05/19 03:51:56;;;;;;;;;10.00;8.80;;;;;21.49;60.90;99708.09;5096237;27;45462;-63
2022/05/19 03:54:31;;;;;;;;;10.00;9.00;;;;;21.46;60.51;99715.53;5078033;27;45312;-63
2022/05/19 03:56:56;;;;;;;;;9.75;9.75;;;;;21.44;61.08;99720.19;5096462;27;45476;-63
2022/05/19 03:59:22;;;;;;;;;10.00;10.00;;;;;21.44;60.57;99714.81;5096320;27;45426;-63
2022/05/19 04:01:56;;;;;;;;;9.50;9.50;;;;;21.42;60.35;99717.59;5096321;27;45425;-64
2022/05/19 04:04:22;;;;;;;;;11.50;10.50;;;;;21.40;60.41;99714.19;5095834;27;45368;-63
2022/05/19 04:06:47;;;;;;;;;7.00;7.00;;;;;21.39;60.90;99725.88;5096181;27;45574;-63
2022/05/19 04:09:12;;;;;;;;;9.75;9.75;;;;;21.38;60.63;99721.47;5095969;27;45610;-63
2022/05/19 04:11:38;;;;;;;;;10.25;9.25;;;;;21.38;60.32;99728.66;5086780;27;45431;-63
2022/05/19 04:14:03;;;;;;;;;12.25;10.25;;;;;21.36;60.88;99734.16;5075265;28;45433;-63
2022/05/19 04:16:29;;;;;;;;;11.25;11.25;;;;;21.34;60.56;99736.09;5075313;28;45565;-63
2022/05/19 04:18:55;;;;;;;;;10.00;9.00;;;;;21.35;60.88;99729.75;5077184;27;46424;-63
2022/05/19 04:21:30;;;;;;;;;9.40;9.00;;;;;21.37;61.33;99730.50;5086590;27;45394;-63
2022/05/19 04:23:57;;;;;;;;;12.00;12.00;;;;;21.38;61.78;99734.03;5075341;28;45378;-63
2022/05/19 04:26:23;;;;;;;;;14.50;12.00;;;;;21.39;61.90;99739.28;5075148;28;45442;-63
2022/05/19 04:28:48;;;;;;;;;11.00;8.00;;;;;21.39;61.65;99736.59;5075344;28;45502;-64
2022/05/19 04:31:14;;;;;;;;;10.00;9.25;;;;;21.43;61.97;99747.97;5085552;27;45453;-63
2022/05/19 04:33:39;;;;;;;;;10.25;10.25;;;;;21.45;61.57;99744.19;5078263;27;45371;-63
2022/05/19 04:36:05;;;;;;;;;12.00;10.50;;;;;21.49;61.46;99744.81;5075211;28;45424;-63
2022/05/19 04:38:30;;;;;;;;;14.50;13.50;;;;;21.51;61.39;99749.09;5075237;28;47372;-63
2022/05/19 04:41:01;;;;;;;;;10.00;10.00;;;;;21.55;61.56;99752.41;5075042;27;46038;-63
2022/05/19 04:43:36;;;;;;;;;11.00;11.00;;;;;21.59;61.22;99761.94;5090953;27;45353;-64
2022/05/19 04:46:01;;;;;;;;;14.50;11.25;;;;;21.62;61.78;99760.88;5065119;28;45517;-63
2022/05/19 04:48:27;;;;;;;;;14.00;12.00;;;;;21.64;61.57;99754.38;5093930;27;47046;-63
2022/05/19 04:50:54;;;;;;;;;11.00;10.75;;;;;21.66;61.22;99757.81;5094773;27;45416;-63
2022/05/19 04:53:20;;;;;;;;;11.25;10.00;;;;;21.68;61.67;99763.06;5095169;27;45500;-64
2022/05/19 04:55:46;;;;;;;;;15.25;13.50;;;;;21.69;61.25;99762.97;5095365;27;45472;-63
2022/05/19 04:58:12;;;;;;;;;9.00;9.00;;;;;21.68;61.82;99771.13;5095119;27;46050;-63
2022/05/19 05:00:38;;;;;;;;;12.50;12.50;;;;;21.68;61.67;99771.13;5095190;27;45473;-63
2022/05/19 05:03:04;;;;;;;;;12.00;11.75;;;;;21.68;61.56;99771.97;5094640;27;45262;-63
2022/05/19 05:05:30;;;;;;;;;12.25;11.25;;;;;21.69;61.57;99781.75;5095243;27;45314;-63
2022/05/19 05:07:55;;;;;;;;;13.00;13.00;;;;;21.70;61.70;99783.47;5094980;27;46324;-64
2022/05/19 05:10:21;;;;;;;;;12.00;11.00;;;;;21.71;61.41;99782.47;5087969;27;45290;-63
2022/05/19 05:12:46;;;;;;;;;11.00;11.00;;;;;21.72;62.18;99788.72;5075329;27;45249;-63
2022/05/19 05:15:12;;;;;;;;;13.25;13.25;;;;;21.72;62.05;99794.06;5074772;28;45353;-63
2022/05/19 05:17:38;;;;;;;;;12.50;11.50;;;;;21.73;61.57;99793.97;5073908;28;45329;-63
2022/05/19 05:20:05;;;;;;;;;10.00;10.00;;;;;21.78;61.98;99788.25;5074124;28;45479;-64
2022/05/19 05:22:34;;;;;;;;;32.75;28.50;;;;;21.79;61.07;99790.78;5074097;28;45495;-64
2022/05/19 05:25:01;;;;;;;;;12.00;12.00;;;;;21.82;61.50;99792.41;5074515;27;45393;-64
2022/05/19 05:27:26;;;;;;;;;11.25;10.50;;;;;21.85;61.27;99798.41;5074426;28;45504;-63
2022/05/19 05:29:52;;;;;;;;;10.50;10.00;;;;;21.86;61.38;99810.84;5086940;27;45384;-64
2022/05/19 05:32:26;;;;;;;;;11.50;10.75;;;;;21.88;61.46;99810.75;5074460;27;45372;-64
2022/05/19 05:34:52;;;;;;;;;11.75;11.25;;;;;21.89;61.17;99815.13;5073574;28;45400;-63
2022/05/19 05:37:17;;;;;;;;;14.25;12.25;;;;;21.93;61.35;99812.13;5080970;27;46366;-64
2022/05/19 05:39:42;;;;;;;;;12.75;10.75;;;;;21.95;61.47;99815.50;5079886;27;45248;-63
2022/05/19 05:42:08;;;;;;;;;13.25;12.00;;;;;21.95;61.32;99826.25;5084104;27;45869;-64
2022/05/19 05:44:34;;;;;;;;;12.75;11.25;;;;;22.00;61.38;99825.09;5080328;27;45449;-63
2022/05/19 05:46:59;;;;;;;;;16.00;15.00;;;;;22.05;61.72;99822.91;5087138;27;45626;-63
2022/05/19 05:49:25;;;;;;;;;13.00;12.50;;;;;22.10;61.61;99824.28;5073016;28;45412;-63
2022/05/19 05:51:59;;;;;;;;;13.25;12.00;;;;;22.14;61.21;99827.56;5074025;28;45760;-63
2022/05/19 05:54:25;;;;;;;;;13.50;11.00;;;;;22.14;61.10;99828.44;5074564;27;45366;-63
2022/05/19 05:56:52;;;;;;;;;11.50;10.50;;;;;22.16;61.13;99823.81;5088513;27;46363;-63
2022/05/19 05:59:17;;;;;;;;;13.20;11.80;;;;;22.16;61.23;99829.16;5081930;27;45420;-63
2022/05/19 06:01:52;;;;;;;;;13.00;11.00;;;;;22.18;60.85;99832.59;5087892;27;45490;-63
2022/05/19 06:04:17;;;;;;;;;12.75;11.50;;;;;22.21;61.29;99820.78;5075652;27;45495;-63
2022/05/19 06:06:45;;;;;;;;;15.00;14.00;;;;;22.24;61.12;99832.13;5096896;27;45745;-64
2022/05/19 06:09:20;;;;;;;;;14.60;13.00;;;;;22.26;60.73;99827.50;5080573;27;45375;-63
2022/05/19 06:11:46;;;;;;;;;16.50;12.75;;;;;22.30;60.87;99825.41;5075815;27;45425;-63
2022/05/19 06:14:11;;;;;;;;;11.25;10.50;;;;;22.33;60.92;99827.00;5060174;28;45402;-63
2022/05/19 06:16:37;;;;;;;;;12.25;12.00;;;;;22.36;60.75;99833.00;5081510;27;46541;-63
2022/05/19 06:19:03;;;;;;;;;14.00;12.25;;;;;22.38;60.42;99825.69;5091854;27;45396;-63
2022/05/19 06:21:28;;;;;;;;;12.00;11.75;;;;;22.40;60.37;99830.97;5076500;28;45455;-63
2022/05/19 06:23:54;;;;;;;;;11.00;11.00;;;;;22.43;60.34;99828.03;5075621;28;45397;-63
2022/05/19 06:26:19;;;;;;;;;11.75;11.25;;;;;22.49;60.27;99841.81;5086211;27;45333;-64
2022/05/19 06:28:44;;;;;;;;;10.50;9.50;;;;;22.54;60.31;99836.97;5096553;27;45432;-64
2022/05/19 06:31:10;;;;;;;;;11.25;10.00;;;;;22.56;60.47;99824.25;5097155;27;45746;-64
2022/05/19 06:33:36;;;;;;;;;13.75;13.00;;;;;22.60;60.60;99833.81;5087534;27;45573;-64
2022/05/19 06:36:05;;;;;;;;;14.00;12.00;;;;;22.64;60.60;99835.25;5096634;27;45712;-64
2022/05/19 06:38:32;;;;;;;;;16.75;16.00;;;;;22.72;60.39;99831.13;5096403;27;45376;-64
2022/05/19 06:42:00;;;;;;;;;13.00;9.50;;;;;22.77;60.26;99834.34;5096177;27;45310;-64
2022/05/19 06:43:52;;;;;;;;;11.75;10.00;;;;;22.82;60.17;99832.97;5060670;28;45361;-64
2022/05/19 06:46:27;;;;;;;;;12.25;11.25;;;;;22.89;60.00;99836.91;5073338;28;46749;-63
2022/05/19 06:48:52;;;;;;;;;15.60;12.40;;;;;22.95;59.75;99839.13;5073442;28;45412;-64
2022/05/19 06:51:18;;;;;;;;;8.25;8.25;;;;;23.02;59.36;99834.09;5073292;28;45559;-65
2022/05/19 06:53:44;;;;;;;;;13.00;12.00;;;;;23.08;59.38;99830.06;5073749;28;45591;-63
2022/05/19 06:56:10;;;;;;;;;13.00;11.75;;;;;23.15;59.14;99825.88;5072541;28;45491;-65
2022/05/19 06:58:36;;;;;;;;;13.80;11.60;;;;;23.23;58.86;99831.50;5063834;28;45645;-65
2022/05/19 07:01:01;;;;;;;;;13.00;11.25;;;;;23.28;58.76;99832.84;5054043;28;45573;-65
2022/05/19 07:03:26;;;;;;;;;12.25;11.75;;;;;23.35;58.69;99829.66;5071216;28;45711;-65
2022/05/19 07:05:52;;;;;;;;;12.25;12.00;;;;;23.39;58.40;99823.91;5072627;28;45547;-65
2022/05/19 07:08:17;;;;;;;;;9.00;9.00;;;;;23.45;58.40;99820.72;5072115;28;45622;-65
2022/05/19 07:10:43;;;;;;;;;14.75;14.00;;;;;23.51;58.32;99816.66;5055153;28;45410;-65
2022/05/19 07:13:08;;;;;;;;;15.75;15.75;;;;;23.56;57.79;99815.31;5063968;28;45582;-65
2022/05/19 07:15:34;;;;;;;;;13.75;12.50;;;;;23.60;57.91;99815.94;5071959;28;46150;-65
2022/05/19 07:17:59;;;;;;;;;13.50;11.00;;;;;23.62;57.58;99822.91;5075553;28;45363;-65
2022/05/19 07:23:15;;;;;;;;;14.00;14.00;;;;;23.73;57.34;99808.53;5073657;28;45399;-65
2022/05/19 07:25:43;;;;;;;;;12.75;12.25;;;;;23.77;57.08;99823.47;5073266;28;46492;-65
2022/05/19 07:28:09;;;;;;;;;15.20;14.00;;;;;23.83;56.53;99820.25;5073507;28;45369;-65
2022/05/19 07:30:34;;;;;;;;;16.00;13.25;;;;;23.89;56.43;99814.34;5088228;27;45376;-65
2022/05/19 07:33:00;;;;;;;;;12.50;12.50;;;;;23.98;56.07;99816.25;5073749;28;45444;-65
2022/05/19 07:35:26;;;;;;;;;13.25;11.25;;;;;24.06;56.09;99823.69;5087043;27;46258;-65
2022/05/19 07:37:51;;;;;;;;;13.75;12.25;;;;;24.13;56.07;99819.47;5075824;28;45278;-65
2022/05/19 07:40:17;;;;;;;;;14.00;13.00;;;;;24.19;56.31;99820.81;5075353;28;45592;-65
2022/05/19 07:42:42;;;;;;;;;12.75;10.50;;;;;24.24;55.88;99819.47;5090530;27;45368;-66
2022/05/19 07:45:10;;;;;;;;;9.00;9.00;;;;;24.26;55.94;99816.66;5082256;27;46171;-65
2022/05/19 07:47:35;;;;;;;;;16.40;11.80;;;;;24.26;55.80;99824.75;5082956;27;45470;-64
2022/05/19 07:50:10;;;;;;;;;14.00;13.00;;;;;24.28;56.32;99806.59;5074825;28;45448;-64
2022/05/19 07:52:38;;;;;;;;;13.50;13.00;;;;;24.31;55.72;99815.25;5088456;27;45457;-64
2022/05/19 07:55:04;;;;;;;;;17.50;12.25;;;;;24.34;55.68;99820.38;5075152;27;47282;-65
2022/05/19 07:57:30;;;;;;;;;11.80;10.80;;;;;24.27;56.04;99815.66;5088199;27;45391;-64
2022/05/19 07:59:55;;;;;;;;;13.00;11.75;;;;;24.17;55.95;99810.16;5082222;27;45918;-65
2022/05/19 08:02:21;;;;;;;;;13.25;11.25;;;;;24.09;55.57;99818.06;5095918;27;45594;-64
2022/05/19 08:04:46;;;;;;;;;16.50;14.00;;;;;23.96;55.67;99818.22;5075466;27;46030;-64
2022/05/19 08:07:12;;;;;;;;;11.25;11.25;;;;;23.86;55.40;99822.69;5075271;28;45356;-64
2022/05/19 08:18:25;;;;;;;;;13.60;12.80;;;;;23.80;55.43;99811.56;5094714;27;45453;-64
2022/05/19 08:21:03;;;;;;;;;13.75;13.00;;;;;23.77;55.88;99815.38;5094163;27;45439;-65
2022/05/19 08:23:34;;;;;;;;;13.00;12.00;;;;;23.73;55.93;99818.44;5095394;27;45554;-65
2022/05/19 08:26:01;;;;;;;;;11.75;11.00;;;;;23.66;55.92;99818.09;5095620;27;45667;-64
2022/05/19 08:28:30;;;;;;;;;15.40;11.80;;;;;23.61;55.56;99817.66;5095477;27;45391;-64
2022/05/19 08:31:02;;;;;;;;;11.00;11.00;;;;;23.59;55.18;99814.22;5095806;27;45412;-64
2022/05/19 08:33:27;;;;;;;;;11.50;11.50;;;;;23.58;55.61;99807.97;5094499;27;45368;-65
2022/05/19 08:35:53;;;;;;;;;12.00;12.00;;;;;23.62;54.95;99817.53;5094498;27;46297;-64
2022/05/19 08:38:28;;;;;;;;;10.00;10.00;;;;;23.67;54.99;99803.66;5094712;27;45399;-64
2022/05/19 08:40:57;;;;;;;;;13.50;13.50;;;;;23.71;55.18;99802.44;5095321;27;45412;-64
2022/05/19 08:43:29;;;;;;;;;9.50;9.00;;;;;23.76;54.88;99792.13;5074233;28;45546;-64
2022/05/19 08:45:58;;;;;;;;;12.25;10.75;;;;;23.83;54.37;99789.75;5063905;28;48322;-64
2022/05/19 08:48:26;;;;;;;;;13.20;11.20;;;;;23.87;54.04;99785.84;5073920;28;45217;-64
2022/05/19 08:51:07;;;;;;;;;11.75;11.00;;;;;23.89;54.12;99786.56;5074346;28;45386;-64
2022/05/19 08:53:41;;;;;;;;;11.75;11.75;;;;;23.92;54.04;99789.00;5073786;28;45431;-64
2022/05/19 08:56:32;;;;;;;;;12.75;12.25;;;;;23.97;53.71;99779.53;5074046;28;45436;-65
2022/05/19 08:59:06;;;;;;;;;13.60;13.60;;;;;24.05;53.51;99780.72;5055641;28;45750;-65
2022/05/19 09:02:01;;;;;;;;;11.00;11.00;;;;;24.12;53.21;99776.53;5087929;27;45411;-65
2022/05/19 09:05:00;;;;;;;;;14.25;12.75;;;;;24.21;53.27;99781.13;5055502;28;45442;-64
2022/05/19 09:10:42;;;;;;;;;11.60;11.60;;;;;24.40;52.68;99773.19;5082515;27;45431;-64
2022/05/19 09:13:26;;;;;;;;;16.00;13.75;;;;;24.52;53.08;99769.41;5071040;27;45320;-64
2022/05/19 09:15:52;;;;;;;;;12.50;12.00;;;;;24.62;52.28;99766.78;5076520;27;45314;-64
2022/05/19 09:18:26;;;;;;;;;14.75;14.50;;;;;24.68;52.42;99755.44;5073309;28;45395;-64
2022/05/19 09:20:55;;;;;;;;;12.60;12.20;;;;;24.78;52.04;99758.19;5055527;28;45411;-64
2022/05/19 09:23:29;;;;;;;;;16.50;14.25;;;;;24.89;51.93;99761.63;5074114;28;45440;-64
2022/05/19 09:26:40;;;;;;;;;14.25;12.75;;;;;24.99;51.31;99757.13;5074182;28;45489;-64
2022/05/19 09:29:09;;;;;;;;;13.25;12.00;;;;;25.11;51.54;99755.22;5064293;27;46215;-64
2022/05/19 09:31:39;;;;;;;;;15.00;13.00;;;;;25.20;50.72;99748.97;5082938;27;45511;-64
2022/05/19 09:34:15;;;;;;;;;13.50;13.50;;;;;25.29;50.66;99744.59;5084634;27;45428;-64
2022/05/19 09:36:54;;;;;;;;;16.00;13.00;;;;;25.36;50.43;99746.56;5081699;27;45462;-65
2022/05/19 09:39:20;;;;;;;;;13.00;13.00;;;;;25.43;50.28;99752.28;5077213;28;45462;-64
2022/05/19 09:41:51;;;;;;;;;14.25;12.75;;;;;25.50;49.97;99749.84;5083761;27;45477;-64
2022/05/19 09:44:27;;;;;;;;;11.00;11.00;;;;;25.58;48.56;99750.00;5086169;27;45484;-64
2022/05/19 09:46:54;;;;;;;;;12.25;11.75;;;;;25.60;48.87;99742.63;5090747;27;45356;-65
2022/05/19 09:49:31;;;;;;;;;13.75;13.00;;;;;25.66;48.82;99734.81;5089393;27;45968;-64
2022/05/19 09:52:17;;;;;;;;;15.40;14.00;;;;;25.80;48.60;99732.72;5089714;27;45406;-64
2022/05/19 09:54:51;;;;;;;;;16.00;13.50;;;;;25.95;48.64;99732.13;5077328;27;45408;-64
2022/05/19 09:57:40;;;;;;;;;17.75;16.50;;;;;26.14;48.32;99738.50;5059020;28;45333;-64
2022/05/19 10:00:46;;;;;;;;;16.50;14.00;;;;;26.34;48.16;99735.59;5065310;28;46038;-64
2022/05/19 10:03:41;;;;;;;;;13.80;13.20;;;;;26.54;46.66;99736.41;5065399;27;45324;-64
2022/05/19 10:06:14;;;;;;;;;13.00;13.00;;;;;26.70;46.76;99730.34;5097363;27;45422;-64
2022/05/19 10:08:43;;;;;;;;;12.00;10.00;;;;;26.89;46.61;99735.69;5097378;27;45396;-64
2022/05/19 10:11:14;;;;;;;;;14.00;13.75;;;;;27.06;45.98;99728.63;5091704;27;46350;-64
2022/05/19 10:13:45;;;;;;;;;12.60;11.60;;;;;27.20;45.92;99722.69;5077013;28;45387;-64
2022/05/19 10:16:34;;;;;;;;;10.00;8.00;;;;;27.31;45.03;99722.50;5065422;27;45444;-64
2022/05/19 10:19:07;;;;;;;;;7.25;6.50;;;;;27.34;45.26;99724.88;5096848;27;45515;-64
2022/05/19 10:22:00;;;;;;;;;14.25;11.25;;;;;27.36;44.12;99717.44;5097045;27;45482;-65
2022/05/19 10:24:51;;;;;;;;;12.40;12.40;;;;;27.40;44.79;99712.59;5097192;27;45455;-64
2022/05/19 10:33:34;;;;;;;;;14.25;11.75;;;;;27.64;43.40;99702.03;5076306;28;45641;-65
2022/05/19 10:36:14;;;;;;;;;15.20;15.00;;;;;27.71;43.17;99702.22;5086887;27;45437;-65
2022/05/19 10:38:46;;;;;;;;;15.00;13.50;;;;;27.73;43.71;99697.50;5096960;27;45448;-65
2022/05/19 10:41:23;;;;;;;;;13.25;9.25;;;;;27.76;43.34;99697.19;5094531;27;45614;-64
2022/05/19 10:44:00;;;;;;;;;13.00;12.75;;;;;27.74;43.40;99691.94;5075671;28;45417;-65
2022/05/19 10:46:36;;;;;;;;;13.40;11.80;;;;;27.71;43.16;99697.66;5090244;27;45535;-65
2022/05/19 10:49:11;;;;;;;;;19.75;16.50;;;;;27.73;43.67;99681.25;5076315;28;45476;-65
2022/05/19 10:51:55;;;;;;;;;11.50;10.00;;;;;27.72;43.53;99682.25;5076354;28;45470;-64
2022/05/19 10:54:35;;;;;;;;;10.50;9.25;;;;;27.64;43.87;99679.50;5076036;27;45494;-64
2022/05/19 10:57:13;;;;;;;;;14.40;14.40;;;;;27.63;43.91;99669.66;5076524;28;45479;-64
2022/05/19 10:59:44;;;;;;;;;15.25;14.25;;;;;27.65;44.33;99675.78;5076357;28;45386;-64
2022/05/19 11:02:37;;;;;;;;;17.50;16.25;;;;;27.66;44.22;99672.88;5076079;28;45455;-64
2022/05/19 11:05:17;;;;;;;;;13.50;13.25;;;;;27.74;43.64;99680.25;5076244;28;45551;-64
2022/05/19 11:07:52;;;;;;;;;15.40;13.40;;;;;27.81;43.62;99661.50;5075465;28;45577;-64
2022/05/19 11:10:36;;;;;;;;;14.00;13.00;;;;;27.93;44.26;99669.22;5081541;27;45411;-64
2022/05/19 11:13:29;;;;;;;;;15.50;13.50;;;;;28.04;43.44;99660.81;5088750;27;45503;-65
2022/05/19 11:16:25;;;;;;;;;13.50;13.50;;;;;28.11;43.85;99656.47;5075505;28;45720;-64
2022/05/19 11:19:03;;;;;;;;;12.60;12.60;;;;;28.22;43.19;99659.94;5074870;28;45509;-64
2022/05/19 11:21:37;;;;;;;;;21.00;16.50;;;;;28.27;43.03;99663.88;5075915;28;45455;-64
2022/05/19 11:24:13;;;;;;;;;11.25;11.25;;;;;28.34;43.15;99653.19;5075795;28;45445;-64
2022/05/19 11:27:07;;;;;;;;;12.25;12.00;;;;;28.46;43.28;99654.63;5089596;27;46186;-64
2022/05/19 11:29:51;;;;;;;;;15.00;13.00;;;;;28.54;43.36;99651.94;5075725;28;45361;-64
2022/05/19 11:32:27;;;;;;;;;13.75;13.75;;;;;28.59;42.34;99656.88;5082296;27;45384;-63
2022/05/19 11:35:18;;;;;;;;;15.25;13.25;;;;;28.60;41.88;99664.88;5096132;27;45203;-63
2022/05/19 11:37:53;;;;;;;;;15.00;13.75;;;;;28.56;42.64;99652.63;5096248;27;45796;-63
2022/05/19 11:40:38;;;;;;;;;15.40;13.60;;;;;28.52;43.03;99653.97;5088736;27;45406;-63
2022/05/19 11:43:24;;;;;;;;;15.00;15.00;;;;;28.52;42.72;99653.13;5074912;27;45282;-63
2022/05/19 11:46:10;;;;;;;;;17.00;15.00;;;;;28.54;42.94;99654.66;5077215;27;45427;-64
2022/05/19 11:57:24;;;;;;;;;15.75;13.75;;;;;28.65;42.56;99654.38;5086955;27;45418;-65
2022/05/19 11:59:55;;;;;;;;;14.75;13.25;;;;;28.60;42.48;99654.03;5090214;27;45666;-65
2022/05/19 12:02:26;;;;;;;;;12.00;11.80;;;;;28.54;42.10;99648.38;5074746;28;45441;-63
2022/05/19 12:05:10;;;;;;;;;9.75;8.00;;;;;28.52;41.67;99656.69;5088827;27;45435;-63
2022/05/19 12:07:52;;;;;;;;;15.25;11.50;;;;;28.52;42.38;99651.25;5056960;28;45354;-63
2022/05/19 12:10:24;;;;;;;;;11.00;9.75;;;;;28.53;43.01;99646.69;5057219;28;45761;-63
2022/05/19 12:13:00;;;;;;;;;9.40;6.80;;;;;28.52;42.96;99640.41;5081072;27;45417;-63